Time;durP1;ratioP1;P1;durP2;ratioP2;P2;SDS_P1;SDS_P2;PMS_P1;PMS_P2;Temp;Humidity;BMP_temperature;BMP_pressure;BME280_temperature;BME280_humidity;BME280_pressure;Samples;Min_cycle;Max_cycle;Signal;HPM_P1;HPM_P2
2021/05/15 00:00:18;;;;;;;6.72;2.60;;;13.30;83.80;;;12.28;76.28;99648.94;4992191;28;20050;-77
2021/05/15 00:02:56;;;;;;;8.63;2.97;;;13.20;83.60;;;12.26;75.84;99644.72;4991718;28;20057;-77
2021/05/15 00:05:30;;;;;;;5.40;2.53;;;13.20;83.60;;;12.23;75.71;99647.91;4992146;28;20081;-77
2021/05/15 00:08:08;;;;;;;6.22;2.70;;;13.20;83.60;;;12.21;75.80;99647.28;4992057;28;20053;-76
2021/05/15 00:10:48;;;;;;;5.50;2.90;;;13.20;83.70;;;12.17;76.00;99646.88;4992094;28;20039;-77
2021/05/15 00:13:24;;;;;;;7.60;2.97;;;13.20;83.80;;;12.15;76.42;99643.53;4991769;28;20043;-77
2021/05/15 00:16:05;;;;;;;9.45;2.70;;;13.10;84.00;;;12.12;75.94;99636.59;4992046;28;20050;-77
2021/05/15 00:18:43;;;;;;;7.80;3.10;;;13.10;83.90;;;12.11;75.91;99637.69;4991849;28;20089;-77
2021/05/15 00:21:19;;;;;;;6.45;3.20;;;13.10;83.90;;;12.09;76.08;99634.34;4974144;28;20061;-76
2021/05/15 00:23:49;;;;;;;11.07;3.35;;;13.00;83.70;;;12.10;75.91;99638.72;4994038;28;20502;-77
2021/05/15 00:26:26;;;;;;;5.15;3.40;;;13.00;83.80;;;12.12;75.87;99630.31;4973960;28;20565;-77
2021/05/15 00:29:04;;;;;;;7.05;3.15;;;13.00;83.80;;;12.08;75.93;99632.66;4991455;28;20058;-76
2021/05/15 00:31:39;;;;;;;7.70;3.42;;;13.00;83.90;;;12.08;75.60;99632.66;4973965;28;20054;-76
2021/05/15 00:34:14;;;;;;;7.35;3.65;;;13.00;84.00;;;12.06;75.97;99632.03;4991440;28;20054;-77
2021/05/15 00:36:58;;;;;;;7.82;3.75;;;12.90;84.00;;;12.05;75.89;99637.69;4991567;28;20526;-77
2021/05/15 00:39:33;;;;;;;7.53;3.60;;;12.90;84.00;;;12.02;75.87;99633.53;4991488;28;20490;-77
2021/05/15 00:42:14;;;;;;;7.70;4.10;;;12.90;84.00;;;11.98;75.96;99632.28;4991295;28;20049;-77
2021/05/15 00:44:52;;;;;;;6.93;3.85;;;12.90;84.10;;;11.95;76.13;99629.97;4991471;28;20053;-77
2021/05/15 00:47:28;;;;;;;7.35;4.40;;;12.90;84.10;;;11.92;76.58;99624.97;4991369;28;20050;-77
2021/05/15 00:50:07;;;;;;;8.10;4.45;;;12.90;84.20;;;11.90;76.53;99624.34;4991366;28;20455;-77
2021/05/15 00:52:46;;;;;;;7.78;4.35;;;12.80;84.20;;;11.88;76.57;99623.66;4990873;28;20045;-77
2021/05/15 00:55:22;;;;;;;7.93;4.25;;;12.80;84.30;;;11.87;76.54;99624.72;4991213;28;20548;-77
2021/05/15 00:58:02;;;;;;;8.45;4.78;;;12.80;84.40;;;11.84;76.51;99619.69;4991051;28;20069;-76
2021/05/15 01:00:37;;;;;;;8.57;4.47;;;12.80;84.40;;;11.83;76.64;99623.50;4991105;28;20046;-76
2021/05/15 01:03:15;;;;;;;8.20;4.53;;;12.80;84.50;;;11.81;77.15;99620.16;4990674;28;20042;-77
2021/05/15 01:05:53;;;;;;;8.57;4.38;;;12.80;84.60;;;11.83;76.83;99612.59;4991016;28;20057;-76
2021/05/15 01:08:36;;;;;;;7.00;4.50;;;12.70;84.60;;;11.80;77.09;99615.72;4990625;28;20046;-77
2021/05/15 01:11:17;;;;;;;9.05;4.70;;;12.70;84.80;;;11.79;77.23;99614.06;4990890;28;20050;-76
2021/05/15 01:14:03;;;;;;;8.98;4.93;;;12.70;84.80;;;11.77;77.16;99618.91;4972805;28;20046;-77
2021/05/15 01:16:42;;;;;;;13.27;5.03;;;12.70;84.80;;;11.72;77.07;99623.09;4990913;28;20061;-77
2021/05/15 01:19:20;;;;;;;8.27;4.97;;;12.70;84.90;;;11.77;77.04;99613.47;4990914;28;20593;-76
2021/05/15 01:21:59;;;;;;;8.75;5.03;;;12.70;84.90;;;11.72;76.81;99617.63;4990662;28;20782;-77
2021/05/15 01:24:37;;;;;;;7.38;4.88;;;12.60;84.70;;;11.72;76.99;99614.91;5112794;23;20482;-81
2021/05/15 01:27:15;;;;;;;9.18;5.18;;;12.60;84.90;;;11.71;77.03;99620.59;5049817;28;20083;-81
2021/05/15 01:29:53;;;;;;;11.63;5.60;;;12.60;85.10;;;11.69;77.30;99618.09;5033311;28;20480;-81
2021/05/15 01:32:31;;;;;;;8.27;5.00;;;12.60;85.10;;;11.65;77.15;99615.97;5031090;28;20095;-81
2021/05/15 01:35:07;;;;;;;9.95;6.07;;;12.60;85.00;;;11.59;77.00;99617.69;5049089;28;20068;-81
2021/05/15 01:37:46;;;;;;;9.45;5.45;;;12.50;85.10;;;11.58;77.06;99605.13;5049676;28;20080;-81
2021/05/15 01:40:26;;;;;;;10.43;5.47;;;12.50;85.00;;;11.58;77.20;99602.38;5049486;28;20052;-81
2021/05/15 01:43:03;;;;;;;9.18;5.50;;;12.40;85.00;;;11.55;77.23;99606.34;5049182;28;20497;-81
2021/05/15 01:45:39;;;;;;;7.88;5.30;;;12.50;85.10;;;11.51;77.18;99610.56;5049353;28;20045;-81
2021/05/15 01:48:29;;;;;;;9.65;5.82;;;12.40;85.10;;;11.48;77.49;99608.28;5049269;28;20045;-81
2021/05/15 01:51:11;;;;;;;11.07;5.93;;;12.40;85.10;;;11.48;77.73;99599.25;5049668;28;20122;-81
2021/05/15 01:53:49;;;;;;;11.88;6.30;;;12.40;85.30;;;11.48;77.73;99599.25;5049119;28;20075;-81
2021/05/15 01:56:30;;;;;;;9.40;5.88;;;12.40;85.40;;;11.45;77.77;99599.69;5031359;28;20045;-80
2021/05/15 01:59:04;;;;;;;9.30;5.78;;;12.40;85.40;;;11.43;78.23;99590.91;5049437;28;20041;-81
2021/05/15 02:01:39;;;;;;;9.35;6.20;;;12.40;85.60;;;11.43;78.10;99590.91;5049180;28;20401;-81
2021/05/15 02:04:17;;;;;;;9.23;6.20;;;12.40;85.80;;;11.44;78.37;99587.97;5049186;28;20091;-81
2021/05/15 02:06:52;;;;;;;8.93;5.57;;;12.40;85.90;;;11.46;78.66;99585.00;5046137;28;20045;-81
2021/05/15 02:09:34;;;;;;;10.70;5.78;;;12.40;86.10;;;11.46;78.52;99585.00;5048915;28;20755;-81
2021/05/15 02:12:12;;;;;;;10.65;5.95;;;12.40;86.20;;;11.46;78.81;99591.31;5048633;28;20550;-81
2021/05/15 02:14:50;;;;;;;10.40;6.22;;;12.40;86.30;;;11.47;79.01;99583.97;5048832;28;20060;-81
2021/05/15 02:17:28;;;;;;;10.18;6.10;;;12.40;86.50;;;11.47;78.71;99581.25;5048910;28;20045;-81
2021/05/15 02:20:03;;;;;;;15.00;6.35;;;12.40;86.50;;;11.48;78.78;99582.91;5048950;28;20049;-81
2021/05/15 02:22:41;;;;;;;11.32;5.93;;;12.40;86.40;;;11.46;78.66;99574.09;5045177;28;20670;-81
2021/05/15 02:25:20;;;;;;;11.93;6.10;;;12.40;86.40;;;11.47;78.66;99573.06;5048664;28;20045;-81
2021/05/15 02:27:58;;;;;;;9.60;6.55;;;12.40;86.40;;;11.48;78.83;99572.88;5048683;28;20421;-81
2021/05/15 02:30:38;;;;;;;10.68;6.35;;;12.40;86.50;;;11.51;78.85;99577.03;5048781;28;20045;-81
2021/05/15 02:33:17;;;;;;;10.52;6.63;;;12.40;86.50;;;11.53;79.02;99569.47;5048476;28;20549;-81
2021/05/15 02:35:55;;;;;;;11.57;6.57;;;12.40;86.70;;;11.55;79.00;99572.84;5048706;28;20102;-81
2021/05/15 02:38:31;;;;;;;10.10;6.50;;;12.50;87.00;;;11.57;79.13;99570.72;5048456;28;20507;-81
2021/05/15 02:41:10;;;;;;;9.73;6.10;;;12.50;87.10;;;11.57;79.20;99559.00;5030450;28;20049;-81
2021/05/15 02:43:45;;;;;;;10.30;6.30;;;12.50;87.10;;;11.58;79.30;99558.78;5048106;28;20122;-81
2021/05/15 02:46:20;;;;;;;10.52;6.53;;;12.50;87.20;;;11.60;79.31;99555.84;5047634;28;20037;-81
2021/05/15 02:48:58;;;;;;;10.77;6.57;;;12.60;87.30;;;11.63;79.61;99553.53;5048248;28;20430;-81
2021/05/15 02:51:33;;;;;;;9.93;6.20;;;12.50;87.30;;;11.65;79.57;99543.25;5048368;28;20054;-81
2021/05/15 02:54:11;;;;;;;11.20;6.22;;;12.60;87.40;;;11.69;79.29;99546.34;5048130;28;20055;-81
2021/05/15 02:56:48;;;;;;;10.25;6.22;;;12.60;87.30;;;11.71;79.45;99547.00;5030215;28;20587;-81
2021/05/15 02:59:26;;;;;;;9.45;6.25;;;12.60;87.40;;;11.73;79.39;99548.47;5048263;28;20041;-81
2021/05/15 03:02:01;;;;;;;9.95;5.95;;;12.60;87.40;;;11.73;79.81;99548.47;5048014;28;20098;-81
2021/05/15 03:04:36;;;;;;;11.13;6.05;;;12.60;87.60;;;11.74;79.15;99544.66;5030433;28;20049;-81
2021/05/15 03:07:11;;;;;;;9.88;6.20;;;12.60;87.00;;;11.76;78.90;99549.06;5048294;28;20528;-81
2021/05/15 03:09:49;;;;;;;10.00;5.78;;;12.70;87.10;;;11.78;79.12;99549.69;5048148;28;20045;-81
2021/05/15 03:12:30;;;;;;;10.48;5.82;;;12.70;87.20;;;11.77;79.22;99542.59;5047944;28;20126;-81
2021/05/15 03:15:03;;;;;;;12.13;6.45;;;12.70;87.20;;;11.75;78.76;99534.63;5048109;28;20052;-81
2021/05/15 03:17:41;;;;;;;10.35;5.70;;;12.70;87.20;;;11.74;78.91;99533.75;5030103;28;20080;-81
2021/05/15 03:20:22;;;;;;;11.30;6.13;;;12.70;86.90;;;11.74;79.07;99533.75;5048042;28;20052;-81
2021/05/15 03:22:59;;;;;;;9.35;5.40;;;12.70;86.90;;;11.73;79.00;99537.56;5047758;28;20095;-82
2021/05/15 03:25:34;;;;;;;9.00;5.45;;;12.70;87.00;;;11.72;79.30;99538.59;5047872;28;20049;-81
2021/05/15 03:28:14;;;;;;;8.88;5.30;;;12.70;87.10;;;11.73;79.19;99525.81;5030010;28;20064;-81
2021/05/15 03:30:53;;;;;;;9.40;5.43;;;12.70;87.00;;;11.73;79.04;99528.53;5048041;28;20048;-81
2021/05/15 03:33:31;;;;;;;10.00;5.32;;;12.70;87.20;;;11.73;79.00;99521.19;5047611;28;20064;-81
2021/05/15 03:36:07;;;;;;;8.07;5.20;;;12.70;87.00;;;11.74;79.68;99525.59;5048081;28;20045;-81
2021/05/15 03:38:45;;;;;;;11.57;5.88;;;12.60;87.10;;;11.74;79.48;99522.84;5047971;28;20041;-81
2021/05/15 03:41:23;;;;;;;9.70;5.57;;;12.70;87.50;;;11.72;79.67;99527.69;5048019;28;20098;-81
2021/05/15 03:44:02;;;;;;;10.20;5.47;;;12.70;87.30;;;11.72;79.81;99524.13;5047499;28;20071;-81
2021/05/15 03:46:40;;;;;;;9.80;5.65;;;12.70;87.50;;;11.73;79.55;99526.66;5048013;28;20053;-81
2021/05/15 03:49:19;;;;;;;11.90;5.40;;;12.70;87.50;;;11.73;79.26;99526.66;5047653;28;20037;-81
2021/05/15 03:51:54;;;;;;;13.88;5.35;;;12.70;87.30;;;11.76;79.16;99530.00;5047546;28;20055;-81
2021/05/15 03:54:32;;;;;;;10.45;5.80;;;12.70;87.20;;;11.76;79.12;99530.00;5047644;28;20049;-81
2021/05/15 03:57:10;;;;;;;9.98;5.55;;;12.70;87.20;;;11.74;79.53;99539.22;5048463;28;20049;-81
2021/05/15 03:59:55;;;;;;;9.95;5.65;;;12.80;87.20;;;11.73;79.61;99537.56;5051375;28;20048;-81
2021/05/15 04:02:31;;;;;;;9.23;5.20;;;12.70;87.20;;;11.72;79.78;99535.88;5051218;28;20044;-81
2021/05/15 04:05:10;;;;;;;8.55;4.95;;;12.80;87.30;;;11.73;79.65;99537.56;5051281;28;20061;-81
2021/05/15 04:07:45;;;;;;;10.38;5.30;;;12.70;87.20;;;11.77;79.42;99528.97;5051218;28;20041;-81
2021/05/15 04:10:18;;;;;;;10.65;5.43;;;12.70;87.30;;;11.77;79.60;99534.41;5051179;28;20099;-81
2021/05/15 04:13:02;;;;;;;8.65;5.03;;;12.70;87.30;;;11.79;79.67;99540.47;5051036;28;20524;-81
2021/05/15 04:15:41;;;;;;;12.32;5.47;;;12.70;87.30;;;11.78;79.39;99538.78;5051107;28;20080;-81
2021/05/15 04:18:21;;;;;;;8.40;5.20;;;12.70;87.20;;;11.79;79.41;99537.75;5051325;28;20047;-81
2021/05/15 04:20:57;;;;;;;7.55;4.75;;;12.70;87.30;;;11.80;79.47;99547.59;5051196;28;20052;-81
2021/05/15 04:23:32;;;;;;;8.60;4.53;;;12.80;87.40;;;11.82;79.58;99540.03;5048252;28;20045;-81
2021/05/15 04:26:10;;;;;;;6.25;4.13;;;12.80;87.40;;;11.85;79.83;99545.06;5031258;28;20386;-81
2021/05/15 04:28:49;;;;;;;6.70;4.10;;;12.80;87.40;;;11.85;79.59;99537.69;5013132;28;20069;-81
2021/05/15 04:31:30;;;;;;;9.07;4.60;;;12.80;87.50;;;11.89;79.59;99540.84;5030857;28;20115;-81
2021/05/15 04:34:06;;;;;;;7.68;4.53;;;12.80;87.50;;;11.89;79.59;99546.28;5030780;28;20057;-81
2021/05/15 04:36:46;;;;;;;7.55;4.47;;;12.80;87.60;;;11.88;80.37;99545.47;5030900;28;20509;-81
2021/05/15 04:39:21;;;;;;;6.07;3.83;;;12.80;87.90;;;11.88;80.59;99540.00;5030794;28;20501;-81
2021/05/15 04:41:59;;;;;;;9.13;4.50;;;12.80;88.10;;;11.89;80.79;99546.28;5030573;28;20038;-81
2021/05/15 04:44:34;;;;;;;9.77;4.68;;;12.80;88.10;;;11.88;80.85;99533.69;5030605;28;20045;-81
2021/05/15 04:47:14;;;;;;;10.60;4.10;;;12.90;88.50;;;11.87;81.36;99534.75;5030787;28;20053;-81
2021/05/15 04:49:52;;;;;;;7.40;4.28;;;12.80;88.60;;;11.86;81.71;99539.38;5030581;28;20048;-81
2021/05/15 04:52:30;;;;;;;6.57;4.25;;;12.80;88.70;;;11.85;81.86;99542.31;5030406;28;20060;-81
2021/05/15 04:55:09;;;;;;;9.52;4.40;;;12.80;89.00;;;11.83;81.43;99537.09;5030602;28;20045;-81
2021/05/15 04:57:47;;;;;;;8.95;4.55;;;12.80;88.80;;;11.83;82.21;99541.72;5030666;28;20045;-81
2021/05/15 05:00:25;;;;;;;6.85;3.97;;;12.90;89.00;;;11.83;82.03;99547.16;5012705;28;20056;-81
2021/05/15 05:03:01;;;;;;;7.07;4.13;;;12.80;89.20;;;11.82;82.34;99540.03;5030262;28;20571;-82
2021/05/15 05:05:33;;;;;;;7.63;4.63;;;12.80;89.30;;;11.83;82.22;99538.97;5030388;28;20052;-81
2021/05/15 05:08:11;;;;;;;6.97;3.88;;;12.80;89.40;;;11.85;81.59;99534.16;5030108;28;20464;-81
2021/05/15 05:10:47;;;;;;;7.45;4.70;;;12.80;89.20;;;11.84;82.28;99548.81;5030119;28;20049;-81
2021/05/15 05:13:25;;;;;;;7.10;4.15;;;12.80;89.30;;;11.84;82.79;99533.31;5011930;28;20126;-81
2021/05/15 05:16:03;;;;;;;8.32;4.55;;;12.90;89.60;;;11.85;82.81;99531.41;5030198;28;20102;-81
2021/05/15 05:18:39;;;;;;;7.20;4.22;;;12.90;89.70;;;11.91;83.05;99538.75;5030182;28;20041;-81
2021/05/15 05:21:17;;;;;;;10.52;4.40;;;12.90;90.00;;;11.95;83.14;99540.00;5030093;28;20427;-81
2021/05/15 05:23:54;;;;;;;7.68;4.47;;;12.90;90.20;;;11.98;82.87;99534.13;5029834;28;20037;-81
2021/05/15 05:26:36;;;;;;;9.98;4.18;;;13.00;90.10;;;12.02;82.88;99529.88;5030338;28;20041;-81
2021/05/15 05:29:12;;;;;;;8.13;4.75;;;13.00;89.90;;;12.02;82.48;99534.50;5030296;28;20048;-81
2021/05/15 05:31:49;;;;;;;7.93;4.53;;;13.00;89.90;;;12.03;82.91;99539.75;5030023;28;20045;-81
2021/05/15 05:34:30;;;;;;;6.80;4.60;;;13.00;90.00;;;12.03;83.11;99534.31;5030195;28;20076;-81
2021/05/15 05:37:02;;;;;;;6.88;4.50;;;13.00;90.00;;;12.05;82.84;99529.47;5030046;28;20050;-81
2021/05/15 05:39:38;;;;;;;7.47;4.70;;;13.10;90.00;;;12.05;83.63;99529.47;5030119;28;20425;-81
2021/05/15 05:42:16;;;;;;;7.50;4.90;;;13.10;90.50;;;12.07;83.31;99526.50;5029681;28;20049;-81
2021/05/15 05:44:49;;;;;;;8.23;4.80;;;13.10;90.50;;;12.06;83.72;99531.13;5029884;28;20072;-81
2021/05/15 05:47:21;;;;;;;10.10;5.18;;;13.10;90.60;;;12.07;83.74;99527.34;5029966;28;20053;-81
2021/05/15 05:50:14;;;;;;;6.95;4.15;;;13.10;90.80;;;12.10;83.83;99526.91;5029757;28;20041;-81
2021/05/15 05:52:49;;;;;;;7.18;4.85;;;13.10;90.80;;;12.11;83.78;99527.75;5026745;28;20053;-81
2021/05/15 05:55:24;;;;;;;6.85;4.75;;;13.10;90.60;;;12.11;84.12;99525.84;5011934;28;20060;-81
2021/05/15 05:57:59;;;;;;;7.32;5.00;;;13.10;90.80;;;12.13;84.21;99523.75;5029748;28;20049;-81
2021/05/15 06:00:37;;;;;;;7.13;4.95;;;13.20;90.90;;;12.16;84.69;99527.91;5029666;28;20053;-81
2021/05/15 06:03:20;;;;;;;6.57;4.60;;;13.20;91.10;;;12.19;84.02;99523.94;5029382;28;20045;-81
2021/05/15 06:05:57;;;;;;;8.32;4.43;;;13.20;91.00;;;12.19;83.75;99522.03;5029629;28;20057;-81
2021/05/15 06:08:37;;;;;;;9.55;4.70;;;13.20;90.70;;;12.21;83.79;99527.28;5029491;28;20041;-81
2021/05/15 06:11:13;;;;;;;9.65;4.55;;;13.30;90.70;;;12.21;83.31;99524.53;5029492;28;20072;-82
2021/05/15 06:13:51;;;;;;;8.18;5.13;;;13.30;90.60;;;12.22;83.69;99521.59;5029136;28;20826;-80
2021/05/15 06:16:29;;;;;;;9.00;5.47;;;13.30;90.50;;;12.24;83.98;99510.44;5029438;28;20048;-80
2021/05/15 06:19:06;;;;;;;7.22;5.22;;;13.30;91.00;;;12.22;83.92;99521.59;5031586;28;20415;-80
2021/05/15 06:21:50;;;;;;;8.45;5.38;;;13.30;90.80;;;12.23;84.10;99525.16;5028979;28;20049;-82
2021/05/15 06:24:28;;;;;;;8.90;6.22;;;13.30;90.90;;;12.24;84.09;99515.91;5029092;28;20490;-84
2021/05/15 06:27:03;;;;;;;11.05;6.82;;;13.30;90.90;;;12.24;83.62;99516.75;5029221;28;20045;-84
2021/05/15 06:29:44;;;;;;;10.68;7.15;;;13.30;90.80;;;12.25;83.88;99512.97;5028973;28;20052;-86
2021/05/15 06:32:27;;;;;;;11.02;7.13;;;13.30;90.60;;;12.26;83.45;99513.78;5028901;28;20049;-86
2021/05/15 06:35:05;;;;;;;9.43;6.53;;;13.30;90.20;;;12.28;83.10;99496.16;5028956;28;20042;-86
2021/05/15 06:37:44;;;;;;;11.93;7.38;;;13.30;90.20;;;12.32;84.09;99510.19;5029054;28;20087;-87
2021/05/15 06:40:23;;;;;;;10.82;6.80;;;13.30;90.70;;;12.32;83.82;99512.94;5029010;28;20409;-86
2021/05/15 06:42:58;;;;;;;11.77;7.50;;;13.40;90.80;;;12.32;84.20;99507.47;5028726;28;20045;-85
2021/05/15 06:45:30;;;;;;;10.52;7.40;;;13.40;90.70;;;12.32;84.26;99508.28;5028921;28;20037;-83
2021/05/15 06:48:06;;;;;;;11.07;7.63;;;13.40;90.90;;;12.35;84.32;99512.47;5028839;28;20125;-85
2021/05/15 06:50:44;;;;;;;12.43;8.13;;;13.40;90.80;;;12.33;83.99;99509.94;5028715;28;20045;-86
2021/05/15 06:53:24;;;;;;;12.20;8.45;;;13.40;90.80;;;12.35;84.07;99511.63;5010634;28;20056;-84
2021/05/15 06:55:59;;;;;;;14.68;9.10;;;13.40;90.60;;;12.38;83.95;99506.59;5028794;28;20438;-84
2021/05/15 06:58:40;;;;;;;17.02;9.88;;;13.40;90.60;;;12.35;83.15;99515.19;5028818;28;20509;-84
2021/05/15 07:01:15;;;;;;;;;;;13.40;90.10;;;12.35;83.04;99507.00;5029213;28;20119;-85
2021/05/15 07:03:51;;;;;;;18.65;9.68;;;13.40;90.10;;;12.35;82.58;99501.56;5028350;28;19928;-85
2021/05/15 07:06:26;;;;;;;16.13;10.40;;;13.40;89.90;;;12.35;83.29;99504.28;5028738;28;20050;-84
2021/05/15 07:09:06;;;;;;;15.45;10.00;;;13.40;90.00;;;12.36;82.94;99505.97;5028564;28;20533;-85
2021/05/15 07:11:38;;;;;;;15.65;9.85;;;13.40;90.00;;;12.36;83.30;99508.69;5028634;28;20045;-85
2021/05/15 07:14:16;;;;;;;15.38;8.68;;;13.40;90.00;;;12.38;83.18;99514.75;5028540;28;20064;-85
2021/05/15 07:16:54;;;;;;;13.77;9.20;;;13.50;90.30;;;12.37;83.16;99510.34;5028771;28;20046;-84
2021/05/15 07:19:29;;;;;;;19.73;9.40;;;13.40;90.00;;;12.38;83.48;99506.59;5028642;28;20654;-85
2021/05/15 07:22:04;;;;;;;14.00;9.05;;;13.40;90.00;;;12.38;83.57;99508.47;5028403;28;20045;-85
2021/05/15 07:24:52;;;;;;;17.13;9.73;;;13.40;90.00;;;12.37;83.00;99504.88;5039950;22;20068;-77
2021/05/15 07:27:29;;;;;;;15.13;9.60;;;13.40;90.00;;;12.36;83.13;99505.13;5008830;28;20053;-77
2021/05/15 07:30:06;;;;;;;15.63;9.60;;;13.40;90.00;;;12.37;83.68;99501.34;5009216;28;20183;-77
2021/05/15 07:32:41;;;;;;;16.85;10.10;;;13.40;90.20;;;12.36;83.84;99496.94;5010119;28;20052;-77
2021/05/15 07:35:16;;;;;;;16.73;10.93;;;13.40;90.40;;;12.37;83.94;99496.72;5011773;28;20566;-78
2021/05/15 07:37:52;;;;;;;16.40;11.27;;;13.40;90.50;;;12.36;83.18;99502.41;5012513;28;20042;-78
2021/05/15 07:40:28;;;;;;;13.32;10.15;;;13.50;90.30;;;12.41;83.28;99494.38;5017098;28;20062;-78
2021/05/15 07:43:04;;;;;;;15.00;10.48;;;13.50;90.10;;;12.40;83.46;99499.00;5012303;28;20057;-77
2021/05/15 07:45:43;;;;;;;14.98;10.50;;;13.50;90.00;;;12.41;83.89;99492.47;5032228;28;20665;-77
2021/05/15 07:48:28;;;;;;;13.98;10.50;;;13.50;90.10;;;12.46;84.10;99495.38;5032241;28;20159;-76
2021/05/15 07:51:05;;;;;;;12.55;9.95;;;13.50;90.30;;;12.50;83.76;99493.88;5032199;28;20046;-77
2021/05/15 07:53:43;;;;;;;13.73;10.23;;;13.60;90.30;;;12.54;84.30;99498.91;5031808;28;20051;-76
2021/05/15 07:56:23;;;;;;;14.38;9.88;;;13.60;90.50;;;12.59;84.46;99491.72;5032186;28;20045;-77
2021/05/15 07:59:01;;;;;;;13.98;10.18;;;13.70;90.80;;;12.61;83.78;99488.78;5032159;28;20038;-79
2021/05/15 08:01:39;;;;;;;14.85;10.48;;;13.70;90.80;;;12.64;84.18;99491.03;5031940;28;20038;-80
2021/05/15 08:04:14;;;;;;;16.33;10.48;;;13.70;90.70;;;12.68;84.32;99495.84;5031854;28;20056;-78
2021/05/15 08:06:51;;;;;;;15.82;10.40;;;13.80;90.80;;;12.71;84.07;99494.53;5031942;28;20150;-77
2021/05/15 08:09:35;;;;;;;14.52;10.48;;;13.80;90.60;;;12.71;84.42;99494.53;5031743;28;20068;-77
2021/05/15 08:12:12;;;;;;;13.45;10.00;;;13.80;90.70;;;12.72;84.15;99490.78;5028198;28;20038;-76
2021/05/15 08:14:46;;;;;;;13.55;9.95;;;13.90;90.50;;;12.73;84.29;99486.97;5031758;28;20057;-77
2021/05/15 08:17:21;;;;;;;14.23;10.40;;;13.90;90.30;;;12.75;84.53;99490.31;5010672;28;20074;-77
2021/05/15 08:19:53;;;;;;;14.95;10.90;;;13.90;90.60;;;12.77;83.77;99495.53;5009872;28;20050;-78
2021/05/15 08:22:31;;;;;;;16.65;10.38;;;13.90;90.30;;;12.78;83.73;99489.03;5013915;28;20095;-77
2021/05/15 08:25:06;;;;;;;14.30;10.48;;;13.90;90.00;;;12.76;83.72;99483.78;5025216;28;20049;-76
2021/05/15 08:27:51;;;;;;;15.13;10.10;;;13.90;90.20;;;12.79;84.16;99480.59;5029275;28;20041;-76
2021/05/15 08:30:31;;;;;;;14.23;9.93;;;13.90;90.20;;;12.85;84.29;99473.41;5011345;28;20041;-77
2021/05/15 08:33:13;;;;;;;13.70;9.60;;;14.00;90.50;;;12.87;84.44;99465.81;5010940;28;20058;-77
2021/05/15 08:35:51;;;;;;;12.65;9.15;;;14.00;90.20;;;12.90;84.85;99460.75;5011131;28;20446;-77
2021/05/15 08:38:29;;;;;;;14.52;10.02;;;14.00;90.50;;;12.89;84.42;99470.00;5011337;28;20057;-77
2021/05/15 08:41:10;;;;;;;12.27;9.15;;;14.10;90.00;;;12.88;84.52;99473.78;5022891;28;20049;-77
2021/05/15 08:43:49;;;;;;;11.73;8.80;;;14.10;90.10;;;12.93;85.19;99475.00;5028832;28;20046;-78
2021/05/15 08:46:26;;;;;;;12.65;9.25;;;14.10;90.60;;;12.96;85.16;99469.94;5030648;28;20034;-77
2021/05/15 08:49:08;;;;;;;13.23;8.82;;;14.20;90.40;;;13.01;85.27;99477.47;5030710;28;20064;-77
2021/05/15 08:51:47;;;;;;;11.50;8.75;;;14.20;90.30;;;13.08;85.37;99479.06;5030288;28;20497;-77
2021/05/15 08:54:26;;;;;;;14.60;9.38;;;14.30;90.90;;;13.17;86.67;99476.84;5029899;28;20038;-79
2021/05/15 08:57:04;;;;;;;13.60;10.18;;;14.40;91.70;;;13.29;88.18;99469.56;5030261;28;20094;-77
2021/05/15 08:59:43;;;;;;;11.82;8.85;;;14.50;92.60;;;13.35;87.99;99458.84;5030730;28;20084;-77
2021/05/15 09:02:22;;;;;;;13.07;9.18;;;14.60;92.40;;;13.40;86.75;99458.97;5024043;28;20041;-78
2021/05/15 09:04:54;;;;;;;11.55;8.60;;;14.70;91.50;;;13.39;85.64;99457.31;5010817;28;20088;-78
2021/05/15 09:07:27;;;;;;;11.77;8.07;;;14.80;90.30;;;13.42;84.80;99456.84;5015760;28;20046;-78
2021/05/15 09:10:06;;;;;;;10.60;7.45;;;14.80;89.40;;;13.44;84.48;99454.72;5010329;28;20038;-78
2021/05/15 09:12:44;;;;;;;9.05;6.75;;;14.80;89.20;;;13.46;83.26;99455.31;5010151;28;20060;-78
2021/05/15 09:15:24;;;;;;;12.35;8.00;;;14.80;88.40;;;13.53;85.94;99447.03;5010542;28;20062;-78
2021/05/15 09:18:00;;;;;;;12.93;7.55;;;14.80;90.00;;;13.64;86.11;99438.06;5009187;28;20469;-78
2021/05/15 09:20:40;;;;;;;11.45;7.47;;;15.00;91.30;;;13.72;84.13;99440.47;5010179;28;20045;-78
2021/05/15 09:23:27;;;;;;;10.27;7.38;;;15.10;89.60;;;13.77;85.61;99442.50;5010052;28;20050;-78
2021/05/15 09:26:14;;;;;;;9.88;6.78;;;15.20;89.40;;;13.91;86.02;99435.78;5009916;28;20580;-78
2021/05/15 09:28:53;;;;;;;9.77;6.55;;;15.30;90.70;;;14.00;84.77;99428.91;5010285;28;20092;-78
2021/05/15 09:31:35;;;;;;;9.18;6.15;;;15.40;89.20;;;14.00;82.96;99428.91;5009762;28;20053;-78
2021/05/15 09:34:15;;;;;;;9.73;6.32;;;15.50;88.00;;;13.96;81.64;99430.44;5009809;28;20049;-76
2021/05/15 09:36:56;;;;;;;10.88;6.45;;;15.40;86.40;;;13.92;81.05;99440.19;5009795;28;20038;-77
2021/05/15 09:39:31;;;;;;;;;;;15.40;86.00;;;13.86;79.03;99424.72;5010509;28;20070;-77
2021/05/15 09:42:11;;;;;;;11.63;7.00;;;15.30;85.10;;;13.82;78.73;99424.34;5009653;28;19925;-76
2021/05/15 09:44:49;;;;;;;10.82;6.55;;;15.20;84.80;;;13.80;79.03;99425.63;5009819;28;20046;-77
2021/05/15 09:47:28;;;;;;;9.80;5.78;;;15.10;84.80;;;13.76;76.48;99429.91;5008084;28;20053;-77
2021/05/15 09:50:14;;;;;;;9.40;6.15;;;15.10;83.20;;;13.79;77.80;99426.72;5009986;28;20050;-79
2021/05/15 09:52:52;;;;;;;8.73;5.30;;;15.10;84.40;;;13.79;77.90;99415.78;5017678;28;20045;-78
2021/05/15 09:55:35;;;;;;;8.57;6.00;;;15.10;84.50;;;13.79;77.90;99423.97;5021159;28;20175;-77
2021/05/15 09:58:12;;;;;;;9.05;5.70;;;15.10;84.50;;;13.70;76.34;99415.25;5028511;28;20046;-77
2021/05/15 10:00:55;;;;;;;9.10;6.25;;;15.10;82.60;;;13.72;76.85;99415.84;5009760;28;20160;-78
2021/05/15 10:03:50;;;;;;;9.60;5.20;;;15.10;83.60;;;13.69;77.78;99408.13;5009371;28;20392;-78
2021/05/15 10:06:25;;;;;;;9.25;6.22;;;15.00;83.80;;;13.75;79.49;99409.09;5010394;28;20045;-77
2021/05/15 10:09:06;;;;;;;9.05;6.30;;;15.10;84.90;;;13.82;79.05;99401.59;5007720;28;20042;-78
2021/05/15 10:11:44;;;;;;;9.63;5.65;;;15.10;84.90;;;13.85;79.87;99387.47;5009022;28;20498;-77
2021/05/15 10:14:23;;;;;;;10.10;6.05;;;15.20;85.30;;;13.92;79.82;99388.22;5009127;28;20074;-78
2021/05/15 10:16:59;;;;;;;8.82;5.40;;;15.30;85.10;;;13.93;79.14;99380.84;5009581;28;20042;-77
2021/05/15 10:19:35;;;;;;;10.20;5.50;;;15.30;84.30;;;13.98;79.26;99384.53;5009570;28;20494;-79
2021/05/15 10:22:13;;;;;;;8.95;6.07;;;15.40;83.70;;;14.07;80.25;99372.19;5009059;28;20041;-78
2021/05/15 10:24:55;;;;;;;10.13;7.15;;;15.50;84.80;;;14.14;78.83;99373.97;5009168;28;20120;-79
2021/05/15 10:27:36;;;;;;;10.23;6.45;;;15.60;84.40;;;14.20;77.27;99370.28;5009427;28;20054;-79
2021/05/15 10:30:27;;;;;;;10.98;6.55;;;15.60;82.90;;;14.26;77.98;99355.69;5007640;28;20056;-79
2021/05/15 10:33:05;;;;;;;8.38;6.03;;;15.70;82.60;;;14.35;77.68;99361.63;5009086;28;20064;-79
2021/05/15 10:35:51;;;;;;;9.45;6.15;;;15.80;82.50;;;14.38;74.63;99351.03;5009027;28;20108;-79
2021/05/15 10:38:36;;;;;;;8.63;6.07;;;15.80;81.30;;;14.37;76.31;99348.53;5009178;28;20053;-79
2021/05/15 10:41:24;;;;;;;8.77;5.90;;;15.80;80.90;;;14.43;76.06;99348.41;5009104;28;20562;-79
2021/05/15 10:44:00;;;;;;;7.85;5.70;;;15.90;81.60;;;14.45;75.25;99349.00;5008913;28;20415;-79
2021/05/15 10:46:46;;;;;;;9.32;5.72;;;15.90;80.30;;;14.51;73.36;99335.41;5008933;28;20046;-79
2021/05/15 10:49:30;;;;;;;7.53;5.00;;;16.00;80.00;;;14.47;72.06;99343.28;5009278;28;20034;-79
2021/05/15 10:52:19;;;;;;;7.47;5.20;;;16.00;77.50;;;14.48;71.75;99339.47;5008765;28;20057;-79
2021/05/15 10:55:09;;;;;;;8.60;5.25;;;16.00;77.40;;;14.45;71.10;99332.59;5008895;28;20414;-79
2021/05/15 10:57:47;;;;;;;7.93;4.60;;;16.00;77.50;;;14.44;69.92;99338.28;5008998;28;20052;-79
2021/05/15 11:00:33;;;;;;;7.40;4.47;;;16.00;76.00;;;14.48;70.75;99340.28;5009318;28;20046;-79